sensor_id;sensor_type;location;lat;lon;timestamp;pressure;altitude;pressure_sealevel;temperature;humidity
74218;BME280;62579;47.288;18.646;2023-02-12T00:01:23;101219.25;;;4.53;78.07
74218;BME280;62579;47.288;18.646;2023-02-12T00:03:50;101218.72;;;4.42;78.42
74218;BME280;62579;47.288;18.646;2023-02-12T00:06:15;101211.22;;;4.34;78.84
74218;BME280;62579;47.288;18.646;2023-02-12T00:08:41;101222.44;;;4.32;79.12
74218;BME280;62579;47.288;18.646;2023-02-12T00:11:17;101223.19;;;4.33;79.32
74218;BME280;62579;47.288;18.646;2023-02-12T00:13:43;101221.34;;;4.30;79.56
74218;BME280;62579;47.288;18.646;2023-02-12T00:16:12;101210.13;;;4.31;79.58
74218;BME280;62579;47.288;18.646;2023-02-12T00:18:39;101211.41;;;4.27;79.56
74218;BME280;62579;47.288;18.646;2023-02-12T00:21:05;101221.75;;;4.28;79.42
74218;BME280;62579;47.288;18.646;2023-02-12T00:23:33;101220.31;;;4.23;79.72
74218;BME280;62579;47.288;18.646;2023-02-12T00:25:58;101225.28;;;4.25;79.65
74218;BME280;62579;47.288;18.646;2023-02-12T00:28:24;101236.91;;;4.22;79.73
74218;BME280;62579;47.288;18.646;2023-02-12T00:30:49;101237.56;;;4.10;80.35
74218;BME280;62579;47.288;18.646;2023-02-12T00:33:15;101248.25;;;4.13;80.57
74218;BME280;62579;47.288;18.646;2023-02-12T00:35:40;101241.69;;;4.14;80.46
74218;BME280;62579;47.288;18.646;2023-02-12T00:38:05;101238.31;;;4.10;81.08
74218;BME280;62579;47.288;18.646;2023-02-12T00:40:31;101243.28;;;4.12;80.97
74218;BME280;62579;47.288;18.646;2023-02-12T00:42:56;101237.47;;;4.13;81.06
74218;BME280;62579;47.288;18.646;2023-02-12T00:45:21;101251.03;;;4.10;81.38
74218;BME280;62579;47.288;18.646;2023-02-12T00:47:47;101248.13;;;4.01;81.93
74218;BME280;62579;47.288;18.646;2023-02-12T00:50:12;101250.34;;;4.06;82.07
74218;BME280;62579;47.288;18.646;2023-02-12T00:52:37;101241.78;;;4.11;82.34
74218;BME280;62579;47.288;18.646;2023-02-12T00:55:03;101245.84;;;4.19;82.33
74218;BME280;62579;47.288;18.646;2023-02-12T00:57:29;101239.88;;;4.28;82.14
74218;BME280;62579;47.288;18.646;2023-02-12T00:59:54;101248.69;;;4.28;82.39
74218;BME280;62579;47.288;18.646;2023-02-12T01:02:20;101252.34;;;4.38;82.30
74218;BME280;62579;47.288;18.646;2023-02-12T01:04:45;101251.84;;;4.43;82.26
74218;BME280;62579;47.288;18.646;2023-02-12T01:07:11;101256.72;;;4.48;81.98
74218;BME280;62579;47.288;18.646;2023-02-12T01:09:36;101255.38;;;4.56;81.65
74218;BME280;62579;47.288;18.646;2023-02-12T01:12:02;101250.50;;;4.51;81.77
74218;BME280;62579;47.288;18.646;2023-02-12T01:14:27;101249.41;;;4.48;81.88
74218;BME280;62579;47.288;18.646;2023-02-12T01:16:53;101245.12;;;4.51;81.77
74218;BME280;62579;47.288;18.646;2023-02-12T01:19:18;101243.84;;;4.55;81.80
74218;BME280;62579;47.288;18.646;2023-02-12T01:21:45;101244.78;;;4.49;82.15
74218;BME280;62579;47.288;18.646;2023-02-12T01:24:10;101251.25;;;4.51;81.99
74218;BME280;62579;47.288;18.646;2023-02-12T01:26:36;101249.75;;;4.50;81.89
74218;BME280;62579;47.288;18.646;2023-02-12T01:29:05;101245.69;;;4.42;82.34
74218;BME280;62579;47.288;18.646;2023-02-12T01:31:32;101236.06;;;4.41;82.68
74218;BME280;62579;47.288;18.646;2023-02-12T01:33:59;101231.38;;;4.45;82.71
74218;BME280;62579;47.288;18.646;2023-02-12T01:36:27;101237.84;;;4.32;83.06
74218;BME280;62579;47.288;18.646;2023-02-12T01:38:53;101226.50;;;4.40;82.97
74218;BME280;62579;47.288;18.646;2023-02-12T01:41:23;101228.16;;;4.34;83.30
74218;BME280;62579;47.288;18.646;2023-02-12T01:44:08;101233.87;;;4.36;83.38
74218;BME280;62579;47.288;18.646;2023-02-12T01:46:35;101231.53;;;4.38;83.40
74218;BME280;62579;47.288;18.646;2023-02-12T01:49:02;101236.75;;;4.29;83.77
74218;BME280;62579;47.288;18.646;2023-02-12T01:51:28;101221.84;;;4.24;83.98
74218;BME280;62579;47.288;18.646;2023-02-12T01:53:57;101220.25;;;4.27;84.23
74218;BME280;62579;47.288;18.646;2023-02-12T01:56:24;101232.25;;;4.22;84.19
74218;BME280;62579;47.288;18.646;2023-02-12T01:58:51;101237.66;;;4.22;84.27
74218;BME280;62579;47.288;18.646;2023-02-12T02:01:25;101241.44;;;4.25;84.27
74218;BME280;62579;47.288;18.646;2023-02-12T02:03:55;101246.75;;;4.29;84.08
74218;BME280;62579;47.288;18.646;2023-02-12T02:06:26;101249.19;;;4.23;84.50
74218;BME280;62579;47.288;18.646;2023-02-12T02:08:53;101248.31;;;4.10;84.87
74218;BME280;62579;47.288;18.646;2023-02-12T02:11:19;101234.69;;;4.17;84.80
74218;BME280;62579;47.288;18.646;2023-02-12T02:14:03;101234.91;;;4.06;85.04
74218;BME280;62579;47.288;18.646;2023-02-12T02:17:13;101239.22;;;4.04;85.29
74218;BME280;62579;47.288;18.646;2023-02-12T02:26:21;101227.75;;;4.00;85.25
74218;BME280;62579;47.288;18.646;2023-02-12T02:31:35;101238.34;;;3.91;85.67
74218;BME280;62579;47.288;18.646;2023-02-12T02:36:40;101253.22;;;3.79;86.41
74218;BME280;62579;47.288;18.646;2023-02-12T02:42:02;101264.31;;;3.81;86.21
74218;BME280;62579;47.288;18.646;2023-02-12T02:44:34;101255.81;;;3.83;85.86
74218;BME280;62579;47.288;18.646;2023-02-12T02:47:04;101245.53;;;3.78;86.32
74218;BME280;62579;47.288;18.646;2023-02-12T02:49:36;101240.31;;;3.71;86.73
74218;BME280;62579;47.288;18.646;2023-02-12T02:52:16;101231.53;;;3.67;86.95
74218;BME280;62579;47.288;18.646;2023-02-12T02:54:47;101239.41;;;3.57;87.44
74218;BME280;62579;47.288;18.646;2023-02-12T02:57:22;101241.66;;;3.59;88.17
74218;BME280;62579;47.288;18.646;2023-02-12T02:59:54;101238.97;;;3.59;88.27
74218;BME280;62579;47.288;18.646;2023-02-12T03:02:27;101245.12;;;3.59;88.38
74218;BME280;62579;47.288;18.646;2023-02-12T03:05:01;101256.56;;;3.63;88.49
74218;BME280;62579;47.288;18.646;2023-02-12T03:07:31;101263.91;;;3.63;88.70
74218;BME280;62579;47.288;18.646;2023-02-12T03:10:06;101255.06;;;3.62;88.77
74218;BME280;62579;47.288;18.646;2023-02-12T03:12:36;101266.78;;;3.72;88.31
74218;BME280;62579;47.288;18.646;2023-02-12T03:15:11;101277.78;;;3.61;88.84
74218;BME280;62579;47.288;18.646;2023-02-12T03:17:44;101273.09;;;3.66;88.73
74218;BME280;62579;47.288;18.646;2023-02-12T03:20:19;101279.56;;;3.68;88.68
74218;BME280;62579;47.288;18.646;2023-02-12T03:22:51;101303.53;;;3.62;89.11
74218;BME280;62579;47.288;18.646;2023-02-12T03:25:34;101300.34;;;3.68;88.94
74218;BME280;62579;47.288;18.646;2023-02-12T03:28:47;101305.09;;;3.60;89.28
74218;BME280;62579;47.288;18.646;2023-02-12T03:41:49;101297.44;;;3.58;89.79
74218;BME280;62579;47.288;18.646;2023-02-12T03:47:11;101310.25;;;3.51;90.16
74218;BME280;62579;47.288;18.646;2023-02-12T03:52:15;101325.06;;;3.62;89.58
74218;BME280;62579;47.288;18.646;2023-02-12T03:54:40;101317.56;;;3.50;89.81
74218;BME280;62579;47.288;18.646;2023-02-12T03:57:26;101323.44;;;3.45;89.90
74218;BME280;62579;47.288;18.646;2023-02-12T03:59:56;101328.47;;;3.43;89.95
74218;BME280;62579;47.288;18.646;2023-02-12T04:02:23;101333.91;;;3.40;90.15
74218;BME280;62579;47.288;18.646;2023-02-12T04:04:50;101344.19;;;3.45;90.33
74218;BME280;62579;47.288;18.646;2023-02-12T04:07:16;101340.34;;;3.46;90.17
74218;BME280;62579;47.288;18.646;2023-02-12T04:09:42;101343.38;;;3.48;89.83
74218;BME280;62579;47.288;18.646;2023-02-12T04:17:34;101348.81;;;3.21;90.56
74218;BME280;62579;47.288;18.646;2023-02-12T04:20:20;101354.66;;;3.16;90.29
74218;BME280;62579;47.288;18.646;2023-02-12T04:23:15;101355.72;;;3.22;90.25
74218;BME280;62579;47.288;18.646;2023-02-12T04:25:52;101358.94;;;3.14;90.20
74218;BME280;62579;47.288;18.646;2023-02-12T04:30:59;101377.78;;;3.14;90.57
74218;BME280;62579;47.288;18.646;2023-02-12T04:33:33;101380.16;;;3.08;90.50
74218;BME280;62579;47.288;18.646;2023-02-12T04:36:14;101385.53;;;3.08;90.30
74218;BME280;62579;47.288;18.646;2023-02-12T04:38:47;101380.28;;;3.01;90.88
74218;BME280;62579;47.288;18.646;2023-02-12T04:41:14;101384.16;;;2.96;91.30
74218;BME280;62579;47.288;18.646;2023-02-12T04:43:40;101386.16;;;2.92;92.14
74218;BME280;62579;47.288;18.646;2023-02-12T04:46:06;101388.84;;;2.92;92.33
74218;BME280;62579;47.288;18.646;2023-02-12T04:48:32;101386.09;;;2.96;92.72
74218;BME280;62579;47.288;18.646;2023-02-12T04:50:59;101378.75;;;3.00;92.13
74218;BME280;62579;47.288;18.646;2023-02-12T04:53:24;101371.75;;;3.06;92.90
74218;BME280;62579;47.288;18.646;2023-02-12T04:55:49;101374.72;;;3.12;92.45
74218;BME280;62579;47.288;18.646;2023-02-12T04:58:16;101378.28;;;3.05;93.13
74218;BME280;62579;47.288;18.646;2023-02-12T05:00:41;101389.28;;;3.14;93.12
74218;BME280;62579;47.288;18.646;2023-02-12T05:03:07;101391.97;;;3.14;93.01
74218;BME280;62579;47.288;18.646;2023-02-12T05:05:32;101392.06;;;3.07;93.14
74218;BME280;62579;47.288;18.646;2023-02-12T05:07:58;101403.94;;;3.10;93.63
74218;BME280;62579;47.288;18.646;2023-02-12T05:10:23;101413.59;;;3.07;93.37
74218;BME280;62579;47.288;18.646;2023-02-12T05:12:52;101430.50;;;3.08;92.91
74218;BME280;62579;47.288;18.646;2023-02-12T05:15:18;101429.94;;;2.93;93.29
74218;BME280;62579;47.288;18.646;2023-02-12T05:17:44;101431.75;;;2.99;93.09
74218;BME280;62579;47.288;18.646;2023-02-12T05:20:10;101434.63;;;2.85;93.75
74218;BME280;62579;47.288;18.646;2023-02-12T05:22:36;101445.00;;;2.87;93.99
74218;BME280;62579;47.288;18.646;2023-02-12T05:25:02;101444.53;;;2.92;94.21
74218;BME280;62579;47.288;18.646;2023-02-12T05:27:27;101453.03;;;2.90;94.19
74218;BME280;62579;47.288;18.646;2023-02-12T05:29:53;101452.78;;;3.08;94.79
74218;BME280;62579;47.288;18.646;2023-02-12T05:32:18;101443.28;;;3.00;94.54
74218;BME280;62579;47.288;18.646;2023-02-12T05:34:43;101455.13;;;3.06;94.29
74218;BME280;62579;47.288;18.646;2023-02-12T05:37:09;101464.69;;;3.07;93.93
74218;BME280;62579;47.288;18.646;2023-02-12T05:39:34;101467.75;;;3.09;93.51
74218;BME280;62579;47.288;18.646;2023-02-12T05:41:59;101468.63;;;2.99;94.07
74218;BME280;62579;47.288;18.646;2023-02-12T05:44:25;101464.03;;;2.99;94.12
74218;BME280;62579;47.288;18.646;2023-02-12T05:46:50;101462.88;;;3.00;94.28
74218;BME280;62579;47.288;18.646;2023-02-12T05:49:16;101468.25;;;3.00;94.35
74218;BME280;62579;47.288;18.646;2023-02-12T05:51:41;101467.47;;;3.00;94.11
74218;BME280;62579;47.288;18.646;2023-02-12T05:54:07;101468.25;;;3.00;94.00
74218;BME280;62579;47.288;18.646;2023-02-12T05:56:35;101464.78;;;3.00;94.07
74218;BME280;62579;47.288;18.646;2023-02-12T05:59:20;101473.31;;;2.95;93.99
74218;BME280;62579;47.288;18.646;2023-02-12T06:01:47;101470.81;;;2.81;94.46
74218;BME280;62579;47.288;18.646;2023-02-12T06:04:15;101478.50;;;2.79;94.62
74218;BME280;62579;47.288;18.646;2023-02-12T06:06:41;101487.28;;;2.83;95.08
74218;BME280;62579;47.288;18.646;2023-02-12T06:09:08;101487.25;;;2.86;95.05
74218;BME280;62579;47.288;18.646;2023-02-12T06:11:34;101488.53;;;2.75;95.41
74218;BME280;62579;47.288;18.646;2023-02-12T06:14:07;101499.53;;;2.87;95.25
74218;BME280;62579;47.288;18.646;2023-02-12T06:16:33;101505.78;;;2.77;95.45
74218;BME280;62579;47.288;18.646;2023-02-12T06:19:01;101502.16;;;2.91;94.96
74218;BME280;62579;47.288;18.646;2023-02-12T06:21:27;101501.91;;;2.82;95.01
74218;BME280;62579;47.288;18.646;2023-02-12T06:23:53;101514.16;;;2.83;95.14
74218;BME280;62579;47.288;18.646;2023-02-12T06:26:20;101510.28;;;2.87;94.69
74218;BME280;62579;47.288;18.646;2023-02-12T06:28:46;101511.13;;;2.81;95.11
74218;BME280;62579;47.288;18.646;2023-02-12T06:31:17;101514.91;;;2.87;95.24
74218;BME280;62579;47.288;18.646;2023-02-12T06:33:43;101514.00;;;2.97;94.90
74218;BME280;62579;47.288;18.646;2023-02-12T06:36:08;101517.00;;;3.02;94.63
74218;BME280;62579;47.288;18.646;2023-02-12T06:38:34;101520.47;;;3.03;94.44
74218;BME280;62579;47.288;18.646;2023-02-12T06:41:03;101513.16;;;3.03;94.18
74218;BME280;62579;47.288;18.646;2023-02-12T06:43:29;101513.91;;;3.04;94.31
74218;BME280;62579;47.288;18.646;2023-02-12T06:45:54;101531.53;;;3.09;94.32
74218;BME280;62579;47.288;18.646;2023-02-12T06:48:19;101531.09;;;3.14;93.85
74218;BME280;62579;47.288;18.646;2023-02-12T06:50:45;101538.44;;;3.10;94.01
74218;BME280;62579;47.288;18.646;2023-02-12T06:53:10;101535.25;;;3.18;93.74
74218;BME280;62579;47.288;18.646;2023-02-12T06:55:36;101532.25;;;3.13;94.35
74218;BME280;62579;47.288;18.646;2023-02-12T06:58:01;101542.13;;;3.23;94.01
74218;BME280;62579;47.288;18.646;2023-02-12T07:00:26;101541.22;;;3.33;93.96
74218;BME280;62579;47.288;18.646;2023-02-12T07:02:55;101540.00;;;3.37;94.07
74218;BME280;62579;47.288;18.646;2023-02-12T07:05:24;101543.00;;;3.43;94.00
74218;BME280;62579;47.288;18.646;2023-02-12T07:07:49;101554.41;;;3.50;93.88
74218;BME280;62579;47.288;18.646;2023-02-12T07:10:16;101544.22;;;3.65;93.31
74218;BME280;62579;47.288;18.646;2023-02-12T07:12:41;101542.59;;;3.71;93.18
74218;BME280;62579;47.288;18.646;2023-02-12T07:15:07;101551.78;;;3.74;93.34
74218;BME280;62579;47.288;18.646;2023-02-12T07:17:33;101548.16;;;3.84;93.22
74218;BME280;62579;47.288;18.646;2023-02-12T07:19:58;101560.66;;;3.97;92.76
74218;BME280;62579;47.288;18.646;2023-02-12T07:22:24;101567.84;;;4.04;92.47
74218;BME280;62579;47.288;18.646;2023-02-12T07:24:49;101576.19;;;4.13;92.27
74218;BME280;62579;47.288;18.646;2023-02-12T07:27:15;101571.69;;;4.30;91.40
74218;BME280;62579;47.288;18.646;2023-02-12T07:29:41;101575.47;;;4.32;91.36
74218;BME280;62579;47.288;18.646;2023-02-12T07:32:06;101578.38;;;4.41;90.95
74218;BME280;62579;47.288;18.646;2023-02-12T07:34:32;101573.06;;;4.38;90.88
74218;BME280;62579;47.288;18.646;2023-02-12T07:36:57;101584.00;;;4.50;90.47
74218;BME280;62579;47.288;18.646;2023-02-12T07:39:22;101585.69;;;4.64;90.13
74218;BME280;62579;47.288;18.646;2023-02-12T07:41:48;101586.53;;;4.61;89.80
74218;BME280;62579;47.288;18.646;2023-02-12T07:44:13;101587.91;;;4.69;89.93
74218;BME280;62579;47.288;18.646;2023-02-12T07:46:44;101587.53;;;4.70;89.91
74218;BME280;62579;47.288;18.646;2023-02-12T07:49:20;101588.06;;;4.81;89.66
74218;BME280;62579;47.288;18.646;2023-02-12T07:51:47;101587.66;;;4.83;89.32
74218;BME280;62579;47.288;18.646;2023-02-12T07:54:13;101590.44;;;4.99;88.28
74218;BME280;62579;47.288;18.646;2023-02-12T07:56:40;101596.03;;;5.08;88.30
74218;BME280;62579;47.288;18.646;2023-02-12T07:59:11;101605.25;;;5.11;88.14
74218;BME280;62579;47.288;18.646;2023-02-12T08:01:40;101613.25;;;5.14;87.61
74218;BME280;62579;47.288;18.646;2023-02-12T08:04:08;101609.50;;;5.28;87.12
74218;BME280;62579;47.288;18.646;2023-02-12T08:06:37;101617.22;;;5.29;86.78
74218;BME280;62579;47.288;18.646;2023-02-12T08:09:05;101613.84;;;5.41;86.56
74218;BME280;62579;47.288;18.646;2023-02-12T08:11:32;101611.28;;;5.54;86.23
74218;BME280;62579;47.288;18.646;2023-02-12T08:13:58;101600.66;;;5.63;86.07
74218;BME280;62579;47.288;18.646;2023-02-12T08:16:25;101609.50;;;5.83;85.34
74218;BME280;62579;47.288;18.646;2023-02-12T08:18:52;101604.78;;;5.87;84.54
74218;BME280;62579;47.288;18.646;2023-02-12T08:21:25;101617.13;;;5.88;84.74
74218;BME280;62579;47.288;18.646;2023-02-12T08:23:53;101615.00;;;5.96;83.86
74218;BME280;62579;47.288;18.646;2023-02-12T08:26:21;101623.72;;;6.03;83.95
74218;BME280;62579;47.288;18.646;2023-02-12T08:29:11;101637.22;;;6.03;83.38
74218;BME280;62579;47.288;18.646;2023-02-12T08:31:42;101630.47;;;6.12;83.14
74218;BME280;62579;47.288;18.646;2023-02-12T08:34:34;101632.59;;;6.20;82.36
74218;BME280;62579;47.288;18.646;2023-02-12T08:37:00;101638.31;;;6.54;83.85
74218;BME280;62579;47.288;18.646;2023-02-12T08:39:27;101639.87;;;6.84;82.33
74218;BME280;62579;47.288;18.646;2023-02-12T08:41:54;101645.16;;;6.59;80.78
74218;BME280;62579;47.288;18.646;2023-02-12T08:44:19;101646.87;;;6.53;81.01
74218;BME280;62579;47.288;18.646;2023-02-12T08:46:47;101645.00;;;6.50;80.74
74218;BME280;62579;47.288;18.646;2023-02-12T08:49:17;101651.69;;;6.61;80.74
74218;BME280;62579;47.288;18.646;2023-02-12T08:51:46;101651.16;;;6.67;80.73
74218;BME280;62579;47.288;18.646;2023-02-12T08:54:17;101643.25;;;6.88;79.58
74218;BME280;62579;47.288;18.646;2023-02-12T08:56:43;101652.78;;;6.93;80.29
74218;BME280;62579;47.288;18.646;2023-02-12T08:59:12;101654.53;;;6.99;79.15
74218;BME280;62579;47.288;18.646;2023-02-12T09:01:39;101659.09;;;7.02;79.47
74218;BME280;62579;47.288;18.646;2023-02-12T09:04:13;101657.09;;;7.19;78.64
74218;BME280;62579;47.288;18.646;2023-02-12T09:06:39;101659.28;;;7.24;78.29
74218;BME280;62579;47.288;18.646;2023-02-12T09:09:04;101669.69;;;7.25;77.20
74218;BME280;62579;47.288;18.646;2023-02-12T09:11:32;101668.97;;;7.38;77.31
74218;BME280;62579;47.288;18.646;2023-02-12T09:14:01;101673.22;;;7.39;76.66
74218;BME280;62579;47.288;18.646;2023-02-12T09:16:28;101674.44;;;7.50;76.48
74218;BME280;62579;47.288;18.646;2023-02-12T09:18:53;101680.94;;;7.53;76.15
74218;BME280;62579;47.288;18.646;2023-02-12T09:21:19;101673.03;;;7.58;75.68
74218;BME280;62579;47.288;18.646;2023-02-12T09:23:45;101679.19;;;7.59;74.58
74218;BME280;62579;47.288;18.646;2023-02-12T09:26:13;101680.56;;;7.79;74.78
74218;BME280;62579;47.288;18.646;2023-02-12T09:28:39;101689.75;;;7.82;74.76
74218;BME280;62579;47.288;18.646;2023-02-12T09:31:10;101689.78;;;7.95;73.46
74218;BME280;62579;47.288;18.646;2023-02-12T09:33:36;101688.13;;;7.97;73.43
74218;BME280;62579;47.288;18.646;2023-02-12T09:36:07;101690.31;;;8.02;73.00
74218;BME280;62579;47.288;18.646;2023-02-12T09:38:33;101683.78;;;8.12;73.07
74218;BME280;62579;47.288;18.646;2023-02-12T09:51:49;101707.91;;;8.23;70.51
74218;BME280;62579;47.288;18.646;2023-02-12T09:54:20;101704.66;;;8.28;70.54
74218;BME280;62579;47.288;18.646;2023-02-12T09:56:53;101706.62;;;8.27;70.45
74218;BME280;62579;47.288;18.646;2023-02-12T09:59:34;101704.75;;;8.24;69.86
74218;BME280;62579;47.288;18.646;2023-02-12T10:02:01;101705.41;;;8.28;69.58
74218;BME280;62579;47.288;18.646;2023-02-12T10:04:27;101713.62;;;8.50;69.97
74218;BME280;62579;47.288;18.646;2023-02-12T10:07:10;101707.00;;;8.64;69.69
74218;BME280;62579;47.288;18.646;2023-02-12T10:28:25;101721.13;;;9.05;66.77
74218;BME280;62579;47.288;18.646;2023-02-12T10:31:01;101721.50;;;8.95;67.76
74218;BME280;62579;47.288;18.646;2023-02-12T10:33:40;101720.28;;;8.96;67.18
74218;BME280;62579;47.288;18.646;2023-02-12T10:36:20;101727.34;;;8.93;68.07
74218;BME280;62579;47.288;18.646;2023-02-12T10:38:51;101730.34;;;9.08;66.46
74218;BME280;62579;47.288;18.646;2023-02-12T10:41:19;101718.78;;;8.95;67.23
74218;BME280;62579;47.288;18.646;2023-02-12T10:43:46;101727.06;;;9.13;67.06
74218;BME280;62579;47.288;18.646;2023-02-12T10:46:13;101720.97;;;9.22;65.90
74218;BME280;62579;47.288;18.646;2023-02-12T10:48:39;101728.25;;;9.12;65.81
74218;BME280;62579;47.288;18.646;2023-02-12T10:53:40;101727.44;;;9.02;66.42
74218;BME280;62579;47.288;18.646;2023-02-12T11:01:31;101724.81;;;9.33;65.32
74218;BME280;62579;47.288;18.646;2023-02-12T11:03:59;101719.75;;;9.44;64.70
74218;BME280;62579;47.288;18.646;2023-02-12T11:06:30;101720.72;;;9.50;64.38
74218;BME280;62579;47.288;18.646;2023-02-12T11:08:57;101719.91;;;9.41;63.42
74218;BME280;62579;47.288;18.646;2023-02-12T11:11:37;101717.87;;;9.54;63.60
74218;BME280;62579;47.288;18.646;2023-02-12T11:14:15;101711.34;;;9.73;62.78
74218;BME280;62579;47.288;18.646;2023-02-12T11:16:51;101717.84;;;9.76;63.42
74218;BME280;62579;47.288;18.646;2023-02-12T11:19:26;101721.16;;;9.71;63.21
74218;BME280;62579;47.288;18.646;2023-02-12T11:22:09;101708.75;;;9.70;62.64
74218;BME280;62579;47.288;18.646;2023-02-12T11:24:38;101716.59;;;9.68;63.04
74218;BME280;62579;47.288;18.646;2023-02-12T11:29:36;101717.97;;;9.72;63.44
74218;BME280;62579;47.288;18.646;2023-02-12T11:32:05;101716.06;;;9.82;63.46
74218;BME280;62579;47.288;18.646;2023-02-12T11:34:32;101719.09;;;9.84;62.99
74218;BME280;62579;47.288;18.646;2023-02-12T11:36:59;101719.91;;;9.93;62.63
74218;BME280;62579;47.288;18.646;2023-02-12T11:42:01;101717.00;;;9.88;62.52
74218;BME280;62579;47.288;18.646;2023-02-12T11:44:37;101714.09;;;9.82;61.43
74218;BME280;62579;47.288;18.646;2023-02-12T11:47:10;101715.53;;;9.65;62.59
74218;BME280;62579;47.288;18.646;2023-02-12T11:52:33;101711.87;;;9.90;61.48
74218;BME280;62579;47.288;18.646;2023-02-12T11:55:01;101712.13;;;9.83;62.34
74218;BME280;62579;47.288;18.646;2023-02-12T12:00:36;101706.59;;;9.95;61.21
74218;BME280;62579;47.288;18.646;2023-02-12T12:03:15;101706.19;;;10.06;61.25
74218;BME280;62579;47.288;18.646;2023-02-12T12:05:50;101695.47;;;9.72;61.42
74218;BME280;62579;47.288;18.646;2023-02-12T12:11:28;101706.22;;;9.75;61.58
74218;BME280;62579;47.288;18.646;2023-02-12T12:14:04;101709.00;;;9.84;60.62
74218;BME280;62579;47.288;18.646;2023-02-12T12:16:46;101721.56;;;9.91;60.24
74218;BME280;62579;47.288;18.646;2023-02-12T12:19:44;101702.50;;;9.91;60.46
74218;BME280;62579;47.288;18.646;2023-02-12T13:36:11;101689.59;;;9.73;56.59
74218;BME280;62579;47.288;18.646;2023-02-12T13:38:42;101690.09;;;9.90;56.04
74218;BME280;62579;47.288;18.646;2023-02-12T13:41:10;101683.09;;;10.10;55.51
74218;BME280;62579;47.288;18.646;2023-02-12T13:52:02;101693.59;;;9.59;56.17
74218;BME280;62579;47.288;18.646;2023-02-12T13:57:19;101708.37;;;9.37;57.38
74218;BME280;62579;47.288;18.646;2023-02-12T13:59:47;101704.97;;;9.24;57.63
74218;BME280;62579;47.288;18.646;2023-02-12T14:05:02;101717.44;;;8.99;58.37
74218;BME280;62579;47.288;18.646;2023-02-12T14:07:41;101722.09;;;9.12;57.79
74218;BME280;62579;47.288;18.646;2023-02-12T14:10:20;101710.47;;;9.11;58.02
74218;BME280;62579;47.288;18.646;2023-02-12T14:12:46;101717.69;;;9.27;57.16
74218;BME280;62579;47.288;18.646;2023-02-12T14:15:34;101713.69;;;9.40;56.39
74218;BME280;62579;47.288;18.646;2023-02-12T14:18:20;101714.31;;;9.44;55.86
74218;BME280;62579;47.288;18.646;2023-02-12T14:20:46;101715.37;;;9.47;55.26
74218;BME280;62579;47.288;18.646;2023-02-12T14:23:27;101715.47;;;9.56;55.74
74218;BME280;62579;47.288;18.646;2023-02-12T14:25:59;101718.94;;;9.56;55.47
74218;BME280;62579;47.288;18.646;2023-02-12T14:33:41;101718.81;;;9.60;53.98
74218;BME280;62579;47.288;18.646;2023-02-12T14:36:16;101719.81;;;9.53;54.32
74218;BME280;62579;47.288;18.646;2023-02-12T14:41:22;101717.72;;;9.57;54.78
74218;BME280;62579;47.288;18.646;2023-02-12T14:46:59;101713.88;;;9.68;53.23
74218;BME280;62579;47.288;18.646;2023-02-12T14:49:32;101709.03;;;9.62;53.44
74218;BME280;62579;47.288;18.646;2023-02-12T14:54:55;101721.37;;;9.63;53.19
74218;BME280;62579;47.288;18.646;2023-02-12T14:57:36;101723.53;;;9.68;53.11
74218;BME280;62579;47.288;18.646;2023-02-12T15:02:44;101728.72;;;9.76;52.97
74218;BME280;62579;47.288;18.646;2023-02-12T15:05:23;101726.62;;;9.58;53.62
74218;BME280;62579;47.288;18.646;2023-02-12T15:08:02;101719.75;;;9.66;53.23
74218;BME280;62579;47.288;18.646;2023-02-12T15:10:51;101720.81;;;9.68;52.85
74218;BME280;62579;47.288;18.646;2023-02-12T15:23:42;101726.97;;;9.38;54.38
74218;BME280;62579;47.288;18.646;2023-02-12T15:26:17;101737.44;;;9.27;54.89
74218;BME280;62579;47.288;18.646;2023-02-12T15:28:48;101736.75;;;9.14;55.06
74218;BME280;62579;47.288;18.646;2023-02-12T15:31:30;101733.50;;;9.06;55.27
74218;BME280;62579;47.288;18.646;2023-02-12T15:33:58;101735.94;;;8.92;56.01
74218;BME280;62579;47.288;18.646;2023-02-12T15:45:33;101740.19;;;8.05;59.13
74218;BME280;62579;47.288;18.646;2023-02-12T15:48:06;101751.69;;;7.96;59.70
74218;BME280;62579;47.288;18.646;2023-02-12T15:53:11;101746.75;;;7.66;59.54
74218;BME280;62579;47.288;18.646;2023-02-12T15:55:41;101744.34;;;7.55;59.39
74218;BME280;62579;47.288;18.646;2023-02-12T15:58:20;101748.56;;;7.28;59.64
74218;BME280;62579;47.288;18.646;2023-02-12T16:00:46;101753.97;;;7.28;59.63
74218;BME280;62579;47.288;18.646;2023-02-12T16:03:21;101763.91;;;7.18;59.67
74218;BME280;62579;47.288;18.646;2023-02-12T16:05:48;101769.25;;;7.05;59.72
74218;BME280;62579;47.288;18.646;2023-02-12T16:08:19;101769.69;;;7.04;59.91
74218;BME280;62579;47.288;18.646;2023-02-12T16:10:47;101771.63;;;6.87;60.75
74218;BME280;62579;47.288;18.646;2023-02-12T16:13:19;101779.06;;;6.83;61.01
74218;BME280;62579;47.288;18.646;2023-02-12T16:16:03;101786.25;;;6.74;61.35
74218;BME280;62579;47.288;18.646;2023-02-12T16:18:29;101790.50;;;6.75;61.26
74218;BME280;62579;47.288;18.646;2023-02-12T16:23:30;101792.56;;;6.51;61.92
74218;BME280;62579;47.288;18.646;2023-02-12T16:25:57;101792.47;;;6.38;62.34
74218;BME280;62579;47.288;18.646;2023-02-12T16:28:30;101797.78;;;6.26;62.76
74218;BME280;62579;47.288;18.646;2023-02-12T16:31:07;101805.59;;;6.20;62.88
74218;BME280;62579;47.288;18.646;2023-02-12T16:38:44;101817.66;;;5.76;64.11
74218;BME280;62579;47.288;18.646;2023-02-12T16:44:20;101832.06;;;5.70;64.52
74218;BME280;62579;47.288;18.646;2023-02-12T16:46:55;101827.72;;;5.53;65.04
74218;BME280;62579;47.288;18.646;2023-02-12T16:49:24;101828.16;;;5.51;65.09
74218;BME280;62579;47.288;18.646;2023-02-12T16:51:51;101832.59;;;5.38;65.43